Time;durP1;ratioP1;P1;durP2;ratioP2;P2;SDS_P1;SDS_P2;PMS_P1;PMS_P2;Temp;Humidity;BMP_temperature;BMP_pressure;BME280_temperature;BME280_humidity;BME280_pressure;Samples;Min_cycle;Max_cycle;Signal;HPM_P1;HPM_P2
2022/04/04 00:02:05;;;;;;;;;;;2.40;99.90;;;;;;4996999;28;20275;-85
2022/04/04 00:04:30;;;;;;;;;;;2.40;99.90;;;;;;5013479;28;19933;-85
2022/04/04 00:06:57;;;;;;;;;;;2.40;99.90;;;;;;5013406;28;19931;-85
2022/04/04 00:09:22;;;;;;;;;;;2.40;99.90;;;;;;4996717;28;20326;-85
2022/04/04 00:11:48;;;;;;;;;;;2.30;99.90;;;;;;5012520;28;19934;-85
2022/04/04 00:14:13;;;;;;;;;;;2.20;99.90;;;;;;4996723;28;19926;-85
2022/04/04 00:16:38;;;;;;;;;;;2.20;99.90;;;;;;5013013;28;19980;-85
2022/04/04 00:19:05;;;;;;;;;;;2.20;99.90;;;;;;4996456;28;19925;-84
2022/04/04 00:21:31;;;;;;;;;;;2.20;99.90;;;;;;5013948;28;19929;-85
2022/04/04 00:23:56;;;;;;;;;;;2.20;99.90;;;;;;4996764;28;20020;-85
2022/04/04 00:26:22;;;;;;;;;;;2.20;99.90;;;;;;5013637;28;20429;-85
2022/04/04 00:28:49;;;;;;;;;;;2.20;99.90;;;;;;4997036;28;20043;-85
2022/04/04 00:31:15;;;;;;;;;;;2.30;99.90;;;;;;5014149;28;19925;-86
2022/04/04 00:33:41;;;;;;;;;;;2.20;99.90;;;;;;5013715;28;19925;-84
2022/04/04 00:36:07;;;;;;;;;;;2.20;99.90;;;;;;5012835;28;20386;-85
2022/04/04 00:38:32;;;;;;;;;;;2.20;99.90;;;;;;5024888;28;19926;-85
2022/04/04 00:40:58;;;;;;;;;;;2.20;99.90;;;;;;5035336;28;19993;-85
2022/04/04 00:43:23;;;;;;;;;;;2.20;99.90;;;;;;5035757;28;20142;-85
2022/04/04 00:45:50;;;;;;;;;;;2.20;99.90;;;;;;5020207;28;19964;-85
2022/04/04 00:48:15;;;;;;;;;;;2.20;99.90;;;;;;5027855;28;19921;-85
2022/04/04 00:50:41;;;;;;;;;;;2.20;99.90;;;;;;5020878;28;20024;-85
2022/04/04 00:53:08;;;;;;;;;;;2.30;99.90;;;;;;5015524;28;20005;-85
2022/04/04 00:55:34;;;;;;;;;;;2.20;99.90;;;;;;4995256;28;20012;-85
2022/04/04 00:57:59;;;;;;;;;;;2.20;99.90;;;;;;5013694;28;20370;-85
2022/04/04 01:00:25;;;;;;;;;;;2.20;99.90;;;;;;4995653;28;20326;-85
2022/04/04 01:02:50;;;;;;;;;;;2.20;99.90;;;;;;4996093;28;19979;-85
2022/04/04 01:05:16;;;;;;;;;;;2.20;99.90;;;;;;4995856;28;19925;-85
2022/04/04 01:07:41;;;;;;;;;;;2.20;99.90;;;;;;4996457;28;19965;-85
2022/04/04 01:10:08;;;;;;;;;;;2.30;99.90;;;;;;4997338;28;19929;-85
2022/04/04 01:12:34;;;;;;;;;;;2.40;99.90;;;;;;5015819;28;19960;-85
2022/04/04 01:15:00;;;;;;;;;;;2.40;99.90;;;;;;5031492;28;19930;-85
2022/04/04 01:17:27;;;;;;;;;;;2.50;99.90;;;;;;5019458;28;19910;-84
2022/04/04 01:19:53;;;;;;;;;;;2.60;99.90;;;;;;5017521;28;19932;-85
2022/04/04 01:22:18;;;;;;;;;;;2.60;99.90;;;;;;5011277;28;19969;-85
2022/04/04 01:24:44;;;;;;;;;;;2.70;99.90;;;;;;4997653;28;20023;-85
2022/04/04 01:27:11;;;;;;;;;;;2.70;99.90;;;;;;5006679;28;20593;-85
2022/04/04 01:29:37;;;;;;;;;;;2.70;99.90;;;;;;4992863;28;19925;-85
2022/04/04 01:32:03;;;;;;;;;;;2.80;99.90;;;;;;4990247;28;19989;-85
2022/04/04 01:34:29;;;;;;;;;;;2.80;99.90;;;;;;5017026;28;19920;-85
2022/04/04 01:36:55;;;;;;;;;;;2.80;99.90;;;;;;5029529;28;19926;-85
2022/04/04 01:39:21;;;;;;;;;;;2.80;99.90;;;;;;4997287;28;19925;-85
2022/04/04 01:41:46;;;;;;;;;;;2.80;99.90;;;;;;5012721;28;19932;-85
2022/04/04 01:44:12;;;;;;;;;;;2.90;99.90;;;;;;4994884;28;19926;-85
2022/04/04 01:46:38;;;;;;;;;;;2.90;99.90;;;;;;5012440;28;19964;-85
2022/04/04 01:49:04;;;;;;;;;;;2.80;99.90;;;;;;4995062;28;19926;-84
2022/04/04 01:51:30;;;;;;;;;;;2.90;99.90;;;;;;4978170;28;20021;-85
2022/04/04 01:53:56;;;;;;;;;;;2.90;99.90;;;;;;4978255;28;19925;-85
2022/04/04 01:56:22;;;;;;;;;;;2.90;99.90;;;;;;4995052;28;20338;-85
2022/04/04 01:58:49;;;;;;;;;;;2.90;99.90;;;;;;4994297;28;21177;-85
2022/04/04 02:01:16;;;;;;;;;;;2.90;99.90;;;;;;5012680;28;19925;-85
2022/04/04 02:03:44;;;;;;;;;;;3.00;99.90;;;;;;5001211;28;19945;-84
2022/04/04 02:06:10;;;;;;;;;;;3.00;99.90;;;;;;4995005;28;19926;-85
2022/04/04 02:08:35;;;;;;;;;;;3.00;99.90;;;;;;5011998;28;19937;-85
2022/04/04 02:11:02;;;;;;;;;;;3.00;99.90;;;;;;4994721;28;20473;-85
2022/04/04 02:13:28;;;;;;;;;;;3.00;99.90;;;;;;4978430;28;20020;-85
2022/04/04 02:15:55;;;;;;;;;;;3.00;99.90;;;;;;4994674;28;19945;-85
2022/04/04 02:18:21;;;;;;;;;;;3.00;99.90;;;;;;4995193;28;19933;-85
2022/04/04 02:20:46;;;;;;;;;;;3.00;99.90;;;;;;4968731;28;19914;-85
2022/04/04 02:23:12;;;;;;;;;;;3.10;99.90;;;;;;5012436;28;19933;-85
2022/04/04 02:25:38;;;;;;;;;;;3.00;99.90;;;;;;5012129;28;19925;-85
2022/04/04 02:28:03;;;;;;;;;;;3.00;99.90;;;;;;5012185;28;20342;-85
2022/04/04 02:30:29;;;;;;;;;;;3.00;99.90;;;;;;5012408;28;20440;-85
2022/04/04 02:32:55;;;;;;;;;;;3.00;99.90;;;;;;4994922;28;20299;-85
2022/04/04 02:35:20;;;;;;;;;;;3.00;99.90;;;;;;5012414;28;19926;-85
2022/04/04 02:37:46;;;;;;;;;;;2.90;99.90;;;;;;4994340;28;19925;-85
2022/04/04 02:40:11;;;;;;;;;;;3.00;99.90;;;;;;4994781;28;19933;-85
2022/04/04 02:42:37;;;;;;;;;;;3.00;99.90;;;;;;4995160;28;19925;-85
2022/04/04 02:45:02;;;;;;;;;;;3.00;99.90;;;;;;4994908;28;19934;-85
2022/04/04 02:47:28;;;;;;;;;;;3.00;99.90;;;;;;5004818;28;19926;-85
2022/04/04 02:49:53;;;;;;;;;;;2.90;99.90;;;;;;5021316;28;19931;-85
2022/04/04 02:52:19;;;;;;;;;;;3.00;99.90;;;;;;4992425;28;19948;-84
2022/04/04 02:54:44;;;;;;;;;;;3.00;99.90;;;;;;4995393;28;19926;-85
2022/04/04 02:57:10;;;;;;;;;;;3.00;99.90;;;;;;5006597;28;19923;-85
2022/04/04 02:59:35;;;;;;;;;;;3.00;99.90;;;;;;5019571;28;19933;-85
2022/04/04 03:02:01;;;;;;;;;;;3.10;99.90;;;;;;5016872;28;19933;-85
2022/04/04 03:04:27;;;;;;;;;;;3.10;99.90;;;;;;4995261;28;20371;-85
2022/04/04 03:06:53;;;;;;;;;;;3.10;99.90;;;;;;5012469;28;20235;-85
2022/04/04 03:09:18;;;;;;;;;;;3.20;99.90;;;;;;5013346;28;19925;-85
2022/04/04 03:11:43;;;;;;;;;;;3.20;99.90;;;;;;4995746;28;19936;-85
2022/04/04 03:14:09;;;;;;;;;;;3.20;99.90;;;;;;5010784;28;19925;-85
2022/04/04 03:16:34;;;;;;;;;;;3.30;99.90;;;;;;5010398;28;19932;-85
2022/04/04 03:19:00;;;;;;;;;;;3.30;99.90;;;;;;5011837;28;19926;-85
2022/04/04 03:21:29;;;;;;;;;;;3.30;99.90;;;;;;4997410;28;19948;-85
2022/04/04 03:23:54;;;;;;;;;;;3.30;99.90;;;;;;4997567;28;19925;-85
2022/04/04 03:26:20;;;;;;;;;;;3.40;99.90;;;;;;5013790;28;19947;-85
2022/04/04 03:28:46;;;;;;;;;;;3.40;99.90;;;;;;5013970;28;19932;-85
2022/04/04 03:31:12;;;;;;;;;;;3.40;99.90;;;;;;5013478;28;19929;-85
2022/04/04 03:33:38;;;;;;;;;;;3.40;99.90;;;;;;5013946;28;19925;-85
2022/04/04 03:36:03;;;;;;;;;;;3.40;99.90;;;;;;5013122;28;20012;-85
2022/04/04 03:38:29;;;;;;;;;;;3.40;99.90;;;;;;5015346;28;20341;-85
2022/04/04 03:40:55;;;;;;;;;;;3.50;99.90;;;;;;5013776;28;19921;-85
2022/04/04 03:43:21;;;;;;;;;;;3.50;99.90;;;;;;5014672;28;19930;-85
2022/04/04 03:45:47;;;;;;;;;;;3.50;99.90;;;;;;5013368;28;19925;-85
2022/04/04 03:48:12;;;;;;;;;;;3.50;99.90;;;;;;5013155;28;20068;-85
2022/04/04 03:50:39;;;;;;;;;;;3.50;99.90;;;;;;4996649;28;19930;-85
2022/04/04 03:53:05;;;;;;;;;;;3.50;99.90;;;;;;5014530;28;19925;-85
2022/04/04 03:55:32;;;;;;;;;;;3.50;99.90;;;;;;4997238;28;20022;-84
2022/04/04 03:57:58;;;;;;;;;;;3.50;99.90;;;;;;4996974;28;19996;-85
2022/04/04 04:00:24;;;;;;;;;;;3.60;99.90;;;;;;4997209;28;19931;-85
2022/04/04 04:02:50;;;;;;;;;;;3.60;99.90;;;;;;4996565;28;20015;-85
2022/04/04 04:05:16;;;;;;;;;;;3.60;99.90;;;;;;4997804;28;19928;-85
2022/04/04 04:07:42;;;;;;;;;;;3.60;99.90;;;;;;4997572;28;20374;-85
2022/04/04 04:10:10;;;;;;;;;;;3.60;99.90;;;;;;4999102;28;19944;-85
2022/04/04 04:12:35;;;;;;;;;;;3.60;99.90;;;;;;5001692;28;19925;-85
2022/04/04 04:15:01;;;;;;;;;;;3.60;99.90;;;;;;5004651;28;19929;-85
2022/04/04 04:17:27;;;;;;;;;;;3.60;99.90;;;;;;4996008;28;19995;-85
2022/04/04 04:22:37;;;;;;;;;;;3.70;99.90;;;;;;4996225;28;19933;-85
2022/04/04 04:25:03;;;;;;;;;;;3.70;99.90;;;;;;4996432;28;19925;-85
2022/04/04 04:27:28;;;;;;;;;;;3.70;99.90;;;;;;5013960;28;19948;-85
2022/04/04 04:29:54;;;;;;;;;;;3.70;99.90;;;;;;4996222;28;20377;-85
2022/04/04 04:32:20;;;;;;;;;;;3.70;99.90;;;;;;4994908;28;20088;-85
2022/04/04 04:34:48;;;;;;;;;;;3.70;99.90;;;;;;5012578;28;20349;-84
2022/04/04 04:37:19;;;;;;;;;;;3.70;99.90;;;;;;5012470;28;19925;-85
2022/04/04 04:39:44;;;;;;;;;;;3.70;99.90;;;;;;5014089;28;19925;-85
2022/04/04 04:42:10;;;;;;;;;;;3.70;99.90;;;;;;5012452;28;19929;-86
2022/04/04 04:44:36;;;;;;;;;;;3.80;99.90;;;;;;5014378;28;19925;-85
2022/04/04 04:47:02;;;;;;;;;;;3.80;99.90;;;;;;5013741;28;19929;-85
2022/04/04 04:49:28;;;;;;;;;;;3.80;99.90;;;;;;5013391;28;20019;-85
2022/04/04 04:51:54;;;;;;;;;;;3.90;99.90;;;;;;5000406;28;19925;-85
2022/04/04 04:54:20;;;;;;;;;;;3.90;99.90;;;;;;5028664;28;19914;-85
2022/04/04 04:56:46;;;;;;;;;;;3.90;99.90;;;;;;5035049;28;19926;-86
2022/04/04 04:59:12;;;;;;;;;;;3.90;99.90;;;;;;5018713;28;19934;-85
2022/04/04 05:01:38;;;;;;;;;;;3.90;99.90;;;;;;5025228;28;20027;-85
2022/04/04 05:04:04;;;;;;;;;;;3.90;99.90;;;;;;4997163;28;19926;-85
2022/04/04 05:06:30;;;;;;;;;;;3.90;99.90;;;;;;5013669;28;19979;-85
2022/04/04 05:08:58;;;;;;;;;;;3.90;99.90;;;;;;5026702;28;19913;-85
2022/04/04 05:11:23;;;;;;;;;;;3.90;99.90;;;;;;5031265;28;19936;-85
2022/04/04 05:13:48;;;;;;;;;;;3.90;99.90;;;;;;5013246;28;19925;-85
2022/04/04 05:16:14;;;;;;;;;;;3.90;99.90;;;;;;5022314;28;19932;-85
2022/04/04 05:18:42;;;;;;;;;;;3.90;99.90;;;;;;5015849;28;19929;-85
2022/04/04 05:21:09;;;;;;;;;;;3.90;99.90;;;;;;5011951;28;19933;-85
2022/04/04 05:23:35;;;;;;;;;;;3.90;99.90;;;;;;5012643;28;19929;-85
2022/04/04 05:26:00;;;;;;;;;;;3.90;99.90;;;;;;4995550;28;19926;-84
2022/04/04 05:28:26;;;;;;;;;;;3.90;99.90;;;;;;5011715;28;19928;-86
2022/04/04 05:30:52;;;;;;;;;;;3.90;99.90;;;;;;5011405;28;19979;-85
2022/04/04 05:33:17;;;;;;;;;;;3.90;99.90;;;;;;5011879;28;20016;-85
2022/04/04 05:35:43;;;;;;;;;;;3.90;99.90;;;;;;5018970;28;19925;-85
2022/04/04 05:38:08;;;;;;;;;;;4.00;99.90;;;;;;5011623;28;19933;-86
2022/04/04 05:40:34;;;;;;;;;;;4.00;99.90;;;;;;5011753;28;20357;-85
2022/04/04 05:43:00;;;;;;;;;;;4.00;99.90;;;;;;5011229;28;19929;-86
2022/04/04 05:45:26;;;;;;;;;;;4.00;99.90;;;;;;5012887;28;19925;-86
2022/04/04 05:47:52;;;;;;;;;;;4.00;99.90;;;;;;5012573;28;20367;-86
2022/04/04 05:50:18;;;;;;;;;;;4.00;99.90;;;;;;4999005;28;19925;-86
2022/04/04 05:52:44;;;;;;;;;;;4.00;99.90;;;;;;5014090;28;20026;-86
2022/04/04 05:55:10;;;;;;;;;;;4.00;99.90;;;;;;5013121;28;19996;-86
2022/04/04 05:57:38;;;;;;;;;;;4.10;99.90;;;;;;5012496;28;19929;-86
2022/04/04 06:00:10;;;;;;;;;;;4.10;99.90;;;;;;5023237;28;19932;-85
2022/04/04 06:02:37;;;;;;;;;;;4.10;99.90;;;;;;5020906;28;19921;-86
2022/04/04 06:05:02;;;;;;;;;;;4.20;99.90;;;;;;4995161;28;19972;-86
2022/04/04 06:07:28;;;;;;;;;;;4.20;99.90;;;;;;5011285;28;19961;-86
2022/04/04 06:09:53;;;;;;;;;;;4.20;99.90;;;;;;5012467;28;19926;-86
2022/04/04 06:12:19;;;;;;;;;;;4.30;99.90;;;;;;5012571;28;20020;-86
2022/04/04 06:14:44;;;;;;;;;;;4.30;99.90;;;;;;5010534;28;20370;-85
2022/04/04 06:17:10;;;;;;;;;;;4.40;99.90;;;;;;5010999;28;19925;-86
2022/04/04 06:19:36;;;;;;;;;;;4.40;99.90;;;;;;4994891;28;20344;-87
2022/04/04 06:22:03;;;;;;;;;;;4.50;99.90;;;;;;5012456;28;20394;-86
2022/04/04 06:24:28;;;;;;;;;;;4.50;99.90;;;;;;5012058;28;19926;-87
2022/04/04 06:26:55;;;;;;;;;;;4.60;99.90;;;;;;5012432;28;20067;-86
2022/04/04 06:29:20;;;;;;;;;;;4.60;99.90;;;;;;5010550;28;19926;-86
2022/04/04 06:31:46;;;;;;;;;;;4.70;99.90;;;;;;5012154;28;19935;-86
2022/04/04 06:34:11;;;;;;;;;;;4.70;99.90;;;;;;5012440;28;19930;-86
2022/04/04 06:36:40;;;;;;;;;;;4.70;99.90;;;;;;5010967;28;19928;-86
2022/04/04 06:39:06;;;;;;;;;;;4.80;99.90;;;;;;5011951;28;20449;-87
2022/04/04 06:41:32;;;;;;;;;;;4.80;99.90;;;;;;5010977;28;19926;-87
2022/04/04 06:43:58;;;;;;;;;;;4.80;99.90;;;;;;5010660;28;19932;-87
2022/04/04 06:46:24;;;;;;;;;;;;;;;;;;5012417;28;19926;-87
2022/04/04 06:48:51;;;;;;;;;;;4.80;99.90;;;;;;5011933;28;19977;-86
2022/04/04 06:51:16;;;;;;;;;;;4.90;99.90;;;;;;5010749;28;19926;-84
2022/04/04 06:53:42;;;;;;;;;;;5.00;99.90;;;;;;4994395;28;19932;-86
2022/04/04 06:56:08;;;;;;;;;;;5.00;99.90;;;;;;4998221;28;20316;-85
2022/04/04 06:58:33;;;;;;;;;;;5.10;99.90;;;;;;5015210;28;19925;-87
2022/04/04 07:01:01;;;;;;;;;;;;;;;;;;5015929;28;20386;-87
2022/04/04 07:03:29;;;;;;;;;;;;;;;;;;4999018;28;19932;-87
2022/04/04 07:05:55;;;;;;;;;;;;;;;;;;5015989;28;19975;-87
2022/04/04 07:08:21;;;;;;;;;;;;;;;;;;5015449;28;19972;-88
2022/04/04 07:10:47;;;;;;;;;;;5.80;99.90;;;;;;4998270;28;19926;-86
2022/04/04 07:13:13;;;;;;;;;;;5.80;99.90;;;;;;5014475;28;19926;-86
2022/04/04 07:15:41;;;;;;;;;;;5.80;99.90;;;;;;4997732;28;19979;-87
2022/04/04 07:18:06;;;;;;;;;;;5.90;99.90;;;;;;5014127;28;19968;-87
2022/04/04 07:20:32;;;;;;;;;;;6.20;99.90;;;;;;5015529;28;19925;-87
2022/04/04 07:22:58;;;;;;;;;;;6.00;99.90;;;;;;4997409;28;19980;-87
2022/04/04 07:25:24;;;;;;;;;;;6.00;99.90;;;;;;4998075;28;19925;-86
2022/04/04 07:27:49;;;;;;;;;;;6.00;99.90;;;;;;5015372;28;19921;-87
2022/04/04 07:30:17;;;;;;;;;;;6.00;99.90;;;;;;4997743;28;19932;-87
2022/04/04 07:32:43;;;;;;;;;;;6.00;99.90;;;;;;4981494;28;20016;-86
2022/04/04 07:35:12;;;;;;;;;;;5.90;99.90;;;;;;5015911;28;19988;-86
2022/04/04 07:37:41;;;;;;;;;;;5.90;99.90;;;;;;5014815;28;19932;-86
2022/04/04 07:40:07;;;;;;;;;;;5.90;99.90;;;;;;5014999;28;20441;-86
2022/04/04 07:42:33;;;;;;;;;;;5.90;99.90;;;;;;5014731;28;19925;-87
2022/04/04 07:44:59;;;;;;;;;;;5.80;99.90;;;;;;5014017;28;19925;-86
2022/04/04 07:47:24;;;;;;;;;;;5.80;99.90;;;;;;5014901;28;20067;-86
2022/04/04 07:49:50;;;;;;;;;;;5.80;99.90;;;;;;4996882;28;19925;-85
2022/04/04 07:52:15;;;;;;;;;;;5.80;99.90;;;;;;5018805;28;19933;-86
2022/04/04 07:54:41;;;;;;;;;;;5.70;99.90;;;;;;5013240;28;20401;-85
2022/04/04 07:57:07;;;;;;;;;;;5.70;99.90;;;;;;5014414;28;19926;-85
2022/04/04 07:59:32;;;;;;;;;;;5.70;99.90;;;;;;4996741;28;20236;-86
2022/04/04 08:01:58;;;;;;;;;;;5.70;99.90;;;;;;4996996;28;19925;-86
2022/04/04 08:04:23;;;;;;;;;;;5.80;99.90;;;;;;4996719;28;19933;-86
2022/04/04 08:06:50;;;;;;;;;;;5.80;99.90;;;;;;5012934;28;20371;-85
2022/04/04 08:09:16;;;;;;;;;;;5.80;99.90;;;;;;5012890;28;19926;-85
2022/04/04 08:11:41;;;;;;;;;;;5.80;99.90;;;;;;5014381;28;20267;-85
2022/04/04 08:14:09;;;;;;;;;;;5.70;99.90;;;;;;5014484;28;19925;-85
2022/04/04 08:16:35;;;;;;;;;;;5.70;99.90;;;;;;5014251;28;19932;-85
2022/04/04 08:19:02;;;;;;;;;;;5.70;99.90;;;;;;5014428;28;19925;-85
2022/04/04 08:21:28;;;;;;;;;;;5.70;99.90;;;;;;5013279;28;20458;-85
2022/04/04 08:23:53;;;;;;;;;;;5.70;99.90;;;;;;5012508;28;20008;-86
2022/04/04 08:26:19;;;;;;;;;;;5.70;99.90;;;;;;5013540;28;20303;-85
2022/04/04 08:28:45;;;;;;;;;;;5.70;99.90;;;;;;5015209;28;19979;-86
2022/04/04 08:31:10;;;;;;;;;;;5.70;99.90;;;;;;5015337;28;20337;-86
2022/04/04 08:33:37;;;;;;;;;;;5.70;99.90;;;;;;5017551;28;20012;-86
2022/04/04 08:36:04;;;;;;;;;;;5.70;99.90;;;;;;5031631;28;19921;-86
2022/04/04 08:38:29;;;;;;;;;;;5.70;99.90;;;;;;5018941;28;19914;-86
2022/04/04 08:40:56;;;;;;;;;;;5.70;99.90;;;;;;5037091;28;19939;-86
2022/04/04 08:43:23;;;;;;;;;;;5.70;99.90;;;;;;5026830;28;20306;-86
2022/04/04 08:45:49;;;;;;;;;;;5.70;99.90;;;;;;5015691;28;19926;-86
2022/04/04 08:48:16;;;;;;;;;;;5.70;99.90;;;;;;5000508;28;20322;-86
2022/04/04 08:50:42;;;;;;;;;;;5.70;99.90;;;;;;5006387;28;20024;-86
2022/04/04 08:53:08;;;;;;;;;;;5.70;99.90;;;;;;5023428;28;20318;-86
2022/04/04 08:55:35;;;;;;;;;;;5.70;99.90;;;;;;5007769;28;19925;-86
2022/04/04 08:58:00;;;;;;;;;;;5.70;99.90;;;;;;5004045;28;20147;-86
2022/04/04 09:00:26;;;;;;;;;;;5.70;99.90;;;;;;5037148;28;19925;-86
2022/04/04 09:03:02;;;;;;;;;;;5.80;99.90;;;;;;5019321;28;19929;-86
2022/04/04 09:05:29;;;;;;;;;;;5.80;99.90;;;;;;5025252;28;20337;-86
2022/04/04 09:07:59;;;;;;;;;;;5.80;99.90;;;;;;5022463;28;19925;-86
2022/04/04 09:10:35;;;;;;;;;;;5.80;99.90;;;;;;5006052;28;19993;-86
2022/04/04 09:13:07;;;;;;;;;;;5.80;99.90;;;;;;4987883;28;19925;-85
2022/04/04 09:15:52;;;;;;;;;;;5.80;99.90;;;;;;4998651;28;20376;-86
2022/04/04 09:18:18;;;;;;;;;;;5.90;99.90;;;;;;4994746;28;20012;-85
2022/04/04 09:20:51;;;;;;;;;;;5.90;99.90;;;;;;5000249;28;19925;-86
2022/04/04 09:23:16;;;;;;;;;;;5.90;99.90;;;;;;5014052;28;19925;-86
2022/04/04 09:25:42;;;;;;;;;;;6.00;99.90;;;;;;4979295;28;19994;-85
2022/04/04 09:28:18;;;;;;;;;;;6.00;99.90;;;;;;5013044;28;19980;-86
2022/04/04 09:30:44;;;;;;;;;;;6.10;99.90;;;;;;4994797;28;19956;-86
2022/04/04 09:33:33;;;;;;;;;;;6.10;99.90;;;;;;5011756;28;19925;-85
2022/04/04 09:35:58;;;;;;;;;;;6.10;99.90;;;;;;5012586;28;19933;-85
2022/04/04 09:38:24;;;;;;;;;;;6.00;99.90;;;;;;4994763;28;19925;-85
2022/04/04 09:40:50;;;;;;;;;;;6.10;99.90;;;;;;5012798;28;19980;-85
2022/04/04 09:43:16;;;;;;;;;;;6.00;99.90;;;;;;4994867;28;19980;-85
2022/04/04 09:45:43;;;;;;;;;;;5.90;99.90;;;;;;4994809;28;19930;-85
2022/04/04 09:48:09;;;;;;;;;;;5.90;99.90;;;;;;5012497;28;19933;-85
2022/04/04 09:50:45;;;;;;;;;;;5.90;99.90;;;;;;4994707;28;19926;-85
2022/04/04 09:53:10;;;;;;;;;;;5.90;99.90;;;;;;5007627;28;19975;-84
2022/04/04 09:55:37;;;;;;;;;;;5.90;99.90;;;;;;5011043;28;19925;-85
2022/04/04 09:58:05;;;;;;;;;;;5.90;99.90;;;;;;5011737;28;19925;-85
2022/04/04 10:00:31;;;;;;;;;;;5.90;99.90;;;;;;5011418;28;19987;-85
2022/04/04 10:02:57;;;;;;;;;;;5.90;99.90;;;;;;5012215;28;20285;-85
2022/04/04 10:05:24;;;;;;;;;;;5.90;99.90;;;;;;5010924;28;20437;-85
2022/04/04 10:07:51;;;;;;;;;;;5.90;99.90;;;;;;5011505;28;19957;-85
2022/04/04 10:10:16;;;;;;;;;;;5.90;99.90;;;;;;5013301;28;19957;-85
2022/04/04 10:12:42;;;;;;;;;;;5.90;99.90;;;;;;4995511;28;19980;-85
2022/04/04 10:15:09;;;;;;;;;;;5.90;99.90;;;;;;5012440;28;19925;-86
2022/04/04 10:17:34;;;;;;;;;;;6.00;99.90;;;;;;5012463;28;19922;-86
2022/04/04 10:20:01;;;;;;;;;;;6.00;99.90;;;;;;4994324;28;19999;-86
2022/04/04 10:22:27;;;;;;;;;;;;;;;;;;5010586;28;19922;-86
2022/04/04 10:24:52;;;;;;;;;;;6.10;99.90;;;;;;5011954;28;19937;-86
2022/04/04 10:27:22;;;;;;;;;;;6.10;99.90;;;;;;5012658;28;20347;-86
2022/04/04 10:29:48;;;;;;;;;;;6.10;99.90;;;;;;5015749;28;20008;-86
2022/04/04 10:32:23;;;;;;;;;;;6.20;99.90;;;;;;5015910;28;20016;-85
2022/04/04 10:34:49;;;;;;;;;;;6.20;99.90;;;;;;5015644;28;20280;-85
2022/04/04 10:37:15;;;;;;;;;;;6.10;99.90;;;;;;5014577;28;20052;-86
2022/04/04 10:39:43;;;;;;;;;;;6.10;99.90;;;;;;5015929;28;19929;-86
2022/04/04 10:42:26;;;;;;;;;;;6.10;99.90;;;;;;5014769;28;20390;-86
2022/04/04 10:45:00;;;;;;;;;;;6.10;99.90;;;;;;5014251;28;20473;-86
2022/04/04 10:47:27;;;;;;;;;;;6.10;99.90;;;;;;4998389;28;19925;-86
2022/04/04 10:50:11;;;;;;;;;;;6.10;99.90;;;;;;5013882;28;19979;-86
2022/04/04 10:52:38;;;;;;;;;;;6.10;99.90;;;;;;5014288;28;19930;-85
2022/04/04 10:55:22;;;;;;;;;;;6.10;99.90;;;;;;4997810;28;20016;-85
2022/04/04 10:57:47;;;;;;;;;;;6.20;99.90;;;;;;5014275;28;19926;-84
2022/04/04 11:00:15;;;;;;;;;;;6.20;99.90;;;;;;4998080;28;19957;-86
2022/04/04 11:02:42;;;;;;;;;;;6.30;99.90;;;;;;4998171;28;19921;-86
2022/04/04 11:08:46;;;;;;;;;;;;;;;;;;5012907;28;19929;-85
2022/04/04 11:11:15;;;;;;;;;;;6.40;99.90;;;;;;5013285;28;19973;-85
2022/04/04 11:13:49;;;;;;;;;;;6.50;99.90;;;;;;5013956;28;20386;-85
2022/04/04 11:16:17;;;;;;;;;;;6.50;99.90;;;;;;5014082;28;19980;-84
2022/04/04 11:18:53;;;;;;;;;;;6.40;99.90;;;;;;5013476;28;20280;-85
2022/04/04 11:21:38;;;;;;;;;;;6.40;99.90;;;;;;5013948;28;19932;-85
2022/04/04 11:24:08;;;;;;;;;;;6.50;99.90;;;;;;4997519;28;20019;-85
2022/04/04 11:26:33;;;;;;;;;;;6.40;99.90;;;;;;5014992;28;19932;-85
2022/04/04 11:28:59;;;;;;;;;;;6.50;99.90;;;;;;5013739;28;20298;-85
2022/04/04 11:31:24;;;;;;;;;;;6.40;99.90;;;;;;4997190;28;19933;-84
2022/04/04 11:36:43;;;;;;;;;;;6.50;99.90;;;;;;4998984;28;19937;-85
2022/04/04 11:39:10;;;;;;;;;;;6.50;99.90;;;;;;4997462;28;20299;-85
2022/04/04 11:41:36;;;;;;;;;;;6.60;99.90;;;;;;4996762;28;19932;-84
2022/04/04 11:44:05;;;;;;;;;;;6.70;99.90;;;;;;4997125;28;19929;-85
2022/04/04 11:46:32;;;;;;;;;;;6.70;99.90;;;;;;5013398;28;19933;-85
2022/04/04 11:48:59;;;;;;;;;;;6.70;99.90;;;;;;5013197;28;19925;-85
2022/04/04 11:51:25;;;;;;;;;;;6.70;99.90;;;;;;4996844;28;20309;-85
2022/04/04 11:54:00;;;;;;;;;;;6.50;99.90;;;;;;4980603;28;19960;-85
2022/04/04 11:56:35;;;;;;;;;;;6.60;99.90;;;;;;5013577;28;19988;-84
2022/04/04 11:59:04;;;;;;;;;;;6.70;99.90;;;;;;4980530;28;19935;-84
2022/04/04 12:01:33;;;;;;;;;;;6.70;99.90;;;;;;5013906;28;19971;-83
2022/04/04 12:04:00;;;;;;;;;;;6.70;99.90;;;;;;4996777;28;19933;-85
2022/04/04 12:06:28;;;;;;;;;;;6.80;99.90;;;;;;5012755;28;19925;-84
2022/04/04 12:08:55;;;;;;;;;;;6.80;99.90;;;;;;4996543;28;19926;-84
2022/04/04 12:11:28;;;;;;;;;;;6.80;99.90;;;;;;4996515;28;20397;-84
2022/04/04 12:13:56;;;;;;;;;;;6.90;99.90;;;;;;4996618;28;19933;-84
2022/04/04 12:16:26;;;;;;;;;;;6.90;99.90;;;;;;4996430;28;20313;-83
2022/04/04 12:18:55;;;;;;;;;;;6.90;99.90;;;;;;4996912;28;19933;-84
2022/04/04 12:21:21;;;;;;;;;;;6.90;99.90;;;;;;4998241;28;19921;-85
2022/04/04 12:26:31;;;;;;;;;;;7.00;99.90;;;;;;5021252;28;19948;-84
2022/04/04 12:28:56;;;;;;;;;;;7.10;99.90;;;;;;5017769;28;19921;-84
2022/04/04 12:31:23;;;;;;;;;;;7.10;99.90;;;;;;5018797;28;19929;-84
2022/04/04 12:33:53;;;;;;;;;;;7.00;99.90;;;;;;4980243;28;20024;-84
2022/04/04 12:36:32;;;;;;;;;;;7.10;99.90;;;;;;5013375;28;19925;-84
2022/04/04 12:38:58;;;;;;;;;;;7.10;99.90;;;;;;4980994;28;19926;-84
2022/04/04 12:41:24;;;;;;;;;;;7.20;99.90;;;;;;5002562;28;19925;-83
2022/04/04 12:44:03;;;;;;;;;;;7.10;99.90;;;;;;5038292;28;19945;-83
2022/04/04 12:46:33;;;;;;;;;;;7.10;99.90;;;;;;5015646;28;19926;-83
2022/04/04 12:49:17;;;;;;;;;;;7.10;99.90;;;;;;5019054;28;19926;-83
2022/04/04 12:51:53;;;;;;;;;;;7.10;99.90;;;;;;4995557;28;19925;-83
2022/04/04 12:54:25;;;;;;;;;;;7.10;99.90;;;;;;5012228;28;20539;-82
2022/04/04 12:56:51;;;;;;;;;;;7.20;99.90;;;;;;5012050;28;20017;-83
2022/04/04 12:59:18;;;;;;;;;;;7.20;99.90;;;;;;5011841;28;19965;-83
2022/04/04 13:01:59;;;;;;;;;;;7.30;99.90;;;;;;5013231;28;19925;-82
2022/04/04 13:04:25;;;;;;;;;;;7.30;99.90;;;;;;5012959;28;20008;-82
2022/04/04 13:06:50;;;;;;;;;;;7.40;99.90;;;;;;4995631;28;20016;-82
2022/04/04 13:09:23;;;;;;;;;;;7.40;99.90;;;;;;5011995;28;19932;-82
2022/04/04 13:11:49;;;;;;;;;;;7.40;99.90;;;;;;5012816;28;19926;-82
2022/04/04 13:14:15;;;;;;;;;;;7.50;99.90;;;;;;5011586;28;19932;-83
2022/04/04 13:16:45;;;;;;;;;;;7.50;99.90;;;;;;4995171;28;19925;-83
2022/04/04 13:19:11;;;;;;;;;;;7.50;99.90;;;;;;4995541;28;19971;-84
2022/04/04 13:21:38;;;;;;;;;;;7.60;99.90;;;;;;5011728;28;20386;-84
2022/04/04 13:24:04;;;;;;;;;;;7.70;99.90;;;;;;5011537;28;20379;-84
2022/04/04 13:26:30;;;;;;;;;;;7.60;99.90;;;;;;5011561;28;19925;-84
2022/04/04 13:28:56;;;;;;;;;;;7.70;99.90;;;;;;5011189;28;19933;-84
2022/04/04 13:31:22;;;;;;;;;;;7.70;99.90;;;;;;5012642;28;20496;-84
2022/04/04 13:33:48;;;;;;;;;;;7.60;99.90;;;;;;5012489;28;19949;-84
2022/04/04 13:36:14;;;;;;;;;;;7.50;99.90;;;;;;5012567;28;20010;-84
2022/04/04 13:38:42;;;;;;;;;;;;;;;;;;5011499;28;19971;-84
2022/04/04 13:41:07;;;;;;;;;;;7.40;99.90;;;;;;5011229;28;20044;-83
2022/04/04 13:43:33;;;;;;;;;;;7.60;99.90;;;;;;5012074;28;19982;-83
2022/04/04 13:45:59;;;;;;;;;;;7.60;99.90;;;;;;4994717;28;19976;-83
2022/04/04 13:48:24;;;;;;;;;;;7.60;99.90;;;;;;5011300;28;20334;-83
2022/04/04 13:50:50;;;;;;;;;;;7.70;99.90;;;;;;5012356;28;19925;-83
2022/04/04 13:53:15;;;;;;;;;;;7.70;99.90;;;;;;5012176;28;20178;-83
2022/04/04 13:55:41;;;;;;;;;;;7.70;99.90;;;;;;4978723;28;19972;-83
2022/04/04 13:58:07;;;;;;;;;;;7.70;99.90;;;;;;5011885;28;19929;-83
2022/04/04 14:00:34;;;;;;;;;;;7.70;99.90;;;;;;4994644;28;19936;-83
2022/04/04 14:03:00;;;;;;;;;;;7.70;99.90;;;;;;4994176;28;19952;-83
2022/04/04 14:05:25;;;;;;;;;;;7.70;99.90;;;;;;5012216;28;20298;-83
2022/04/04 14:07:51;;;;;;;;;;;7.70;99.90;;;;;;4994471;28;19976;-83
2022/04/04 14:10:16;;;;;;;;;;;7.80;99.90;;;;;;5012356;28;19971;-82
2022/04/04 14:12:42;;;;;;;;;;;7.90;99.90;;;;;;4993658;28;19929;-82
2022/04/04 14:15:09;;;;;;;;;;;7.90;99.90;;;;;;5010727;28;20084;-83
2022/04/04 14:17:35;;;;;;;;;;;7.90;99.90;;;;;;5011639;28;20421;-83
2022/04/04 14:20:05;;;;;;;;;;;8.00;99.90;;;;;;4994379;28;19937;-83
2022/04/04 14:22:30;;;;;;;;;;;8.00;99.90;;;;;;4994207;28;20378;-83
2022/04/04 14:24:57;;;;;;;;;;;8.00;99.90;;;;;;4994750;28;19925;-83
2022/04/04 14:27:26;;;;;;;;;;;8.10;99.90;;;;;;5011558;28;19935;-82
2022/04/04 14:29:51;;;;;;;;;;;8.10;99.90;;;;;;4977826;28;19921;-83
2022/04/04 14:32:17;;;;;;;;;;;8.00;99.90;;;;;;5011800;28;19932;-82
2022/04/04 14:34:43;;;;;;;;;;;8.00;99.90;;;;;;5012002;28;19926;-83
2022/04/04 14:37:09;;;;;;;;;;;8.10;99.90;;;;;;4978098;28;19926;-83
2022/04/04 14:39:34;;;;;;;;;;;8.10;99.90;;;;;;5011661;28;20309;-83
2022/04/04 14:42:00;;;;;;;;;;;8.10;99.90;;;;;;5011330;28;20318;-83
2022/04/04 14:44:26;;;;;;;;;;;8.10;99.90;;;;;;5011682;28;19926;-83